Mendaro, Spain
Current Conditions -  °F | °C
As of 6:00 AM on Monday 22 Dec 2014 (Local Time) from LEBB Reporting Station
Light Fog Light Fog  
Wind Chill: 35°   Ceiling: Unl
Heat Index: 39°   Visibility: 3mi
Dew Point: 39°   Wind: 6mph
Humidity: 100%   Direction: 120°ESE
Pressure: 30.45"   Gusts: NA
Location:  43.25°N, 2.39°W
Report Text: LEBB 220500Z 12005KT 090V150 5000 BCFG SCT005 04/04 Q1031 TEMPO 3000 BCFG
Loading
Personal Weather Stations






























Interactive Weather Map New forecast layout! Learn more

10-Day Weather Forecast

Advertisements
Track Severe Weather on mobile